createdAt,value
2023-06-17T00:00:08.144Z,15.8
2023-06-17T00:01:14.455Z,15.7
2023-06-17T00:02:20.734Z,15.6
2023-06-17T00:03:26.978Z,15.7
2023-06-17T00:04:32.252Z,15.7
2023-06-17T00:05:38.526Z,15.7
2023-06-17T00:06:44.798Z,15.6
2023-06-17T00:07:51.084Z,15.6
2023-06-17T00:08:57.353Z,15.6
2023-06-17T00:10:03.616Z,15.6
2023-06-17T00:11:09.890Z,15.6
2023-06-17T00:12:16.179Z,15.7
2023-06-17T00:13:22.438Z,15.7
2023-06-17T00:14:28.704Z,15.7
2023-06-17T00:15:34.977Z,15.6
2023-06-17T00:16:41.282Z,15.6
2023-06-17T00:17:47.523Z,15.6
2023-06-17T00:18:52.818Z,15.6
2023-06-17T00:19:59.090Z,15.6
2023-06-17T00:21:05.355Z,15.6
2023-06-17T00:22:11.634Z,15.6
2023-06-17T00:23:17.899Z,15.6
2023-06-17T00:24:24.177Z,15.6
2023-06-17T00:25:30.447Z,15.6
2023-06-17T00:26:36.720Z,15.6
2023-06-17T00:27:42.995Z,15.6
2023-06-17T00:28:49.257Z,15.6
2023-06-17T00:29:55.540Z,15.5
2023-06-17T00:31:01.805Z,15.5
2023-06-17T00:32:08.075Z,15.4
2023-06-17T00:33:13.365Z,15.4
2023-06-17T00:34:19.666Z,15.4
2023-06-17T00:35:25.912Z,15.3
2023-06-17T00:36:32.177Z,15.3
2023-06-17T00:37:38.450Z,15.2
2023-06-17T00:38:44.760Z,15.2
2023-06-17T00:39:50.996Z,15.1
2023-06-17T00:40:57.297Z,15.1
2023-06-17T00:42:03.551Z,15.1
2023-06-17T00:43:09.816Z,15.1
2023-06-17T00:44:16.089Z,15.1
2023-06-17T00:45:22.357Z,15.2
2023-06-17T00:46:28.630Z,15.2
2023-06-17T00:47:33.922Z,15.2
2023-06-17T00:48:40.188Z,15.2
2023-06-17T00:49:46.460Z,15.3
2023-06-17T00:50:52.737Z,15.2
2023-06-17T00:51:58.997Z,15.2
2023-06-17T00:53:05.280Z,15.2
2023-06-17T00:54:11.555Z,15.1
2023-06-17T00:55:17.860Z,15.1
2023-06-17T00:56:24.098Z,15.1
2023-06-17T00:57:30.365Z,15.1
2023-06-17T00:58:36.635Z,15.1
2023-06-17T00:59:42.917Z,15.1
2023-06-17T01:00:49.186Z,15.1
2023-06-17T01:01:54.474Z,15.1
2023-06-17T01:03:00.741Z,15.1
2023-06-17T01:04:07.010Z,15.1
2023-06-17T01:05:13.286Z,15.1
2023-06-17T01:06:19.552Z,15.1
2023-06-17T01:07:25.825Z,15.1
2023-06-17T01:08:32.097Z,15.1
2023-06-17T01:09:38.384Z,15.1
2023-06-17T01:10:44.639Z,15
2023-06-17T01:11:50.911Z,15
2023-06-17T01:12:57.191Z,15
2023-06-17T01:14:03.456Z,15
2023-06-17T01:15:09.734Z,15
2023-06-17T01:16:15.022Z,14.9
2023-06-17T01:17:21.334Z,14.9
2023-06-17T01:18:27.569Z,14.9
2023-06-17T01:19:33.852Z,14.9
2023-06-17T01:20:40.112Z,14.9
2023-06-17T01:21:46.386Z,14.9
2023-06-17T01:22:52.669Z,14.9
2023-06-17T01:23:58.930Z,14.9
2023-06-17T01:25:05.204Z,14.8
2023-06-17T01:26:11.468Z,14.8
2023-06-17T01:27:17.757Z,14.8
2023-06-17T01:28:24.024Z,14.8
2023-06-17T01:29:30.289Z,14.8
2023-06-17T01:30:35.565Z,14.8
2023-06-17T01:31:41.848Z,14.8
2023-06-17T01:32:48.122Z,14.8
2023-06-17T01:33:54.394Z,14.8
2023-06-17T01:35:00.660Z,14.8
2023-06-17T01:36:06.942Z,14.7
2023-06-17T01:37:13.213Z,14.7
2023-06-17T01:38:19.478Z,14.7
2023-06-17T01:39:25.747Z,14.7
2023-06-17T01:40:32.021Z,14.7
2023-06-17T01:41:38.302Z,14.7
2023-06-17T01:42:44.561Z,14.7
2023-06-17T01:43:50.840Z,14.7
2023-06-17T01:44:56.134Z,14.7
2023-06-17T01:46:02.399Z,14.6
2023-06-17T01:47:08.672Z,14.5
2023-06-17T01:48:14.984Z,14.4
2023-06-17T01:49:21.226Z,14.3
2023-06-17T01:50:27.491Z,14.3
2023-06-17T01:51:33.761Z,14.3
2023-06-17T01:52:40.042Z,14.2
2023-06-17T01:53:46.330Z,14.2
2023-06-17T01:54:52.582Z,14.2
2023-06-17T01:55:58.851Z,14.2
2023-06-17T01:57:05.119Z,14.1
2023-06-17T01:58:11.388Z,14
2023-06-17T01:59:16.680Z,14
2023-06-17T02:00:22.997Z,14
2023-06-17T02:01:29.221Z,14
2023-06-17T02:02:35.501Z,14
2023-06-17T02:03:41.778Z,14
2023-06-17T02:04:48.044Z,14.1
2023-06-17T02:05:54.323Z,14.1
2023-06-17T02:07:00.586Z,14.1
2023-06-17T02:08:06.862Z,14.1
2023-06-17T02:09:13.124Z,14.1
2023-06-17T02:10:19.405Z,14.1
2023-06-17T02:11:25.699Z,14.1
2023-06-17T02:12:31.946Z,14.2
2023-06-17T02:13:37.239Z,14.2
2023-06-17T02:14:43.509Z,14.1
2023-06-17T02:15:49.770Z,14.2
2023-06-17T02:16:56.050Z,14.2
2023-06-17T02:18:02.346Z,14.2
2023-06-17T02:19:08.600Z,14.2
2023-06-17T02:20:14.856Z,14.2
2023-06-17T02:21:21.128Z,14.2
2023-06-17T02:22:27.409Z,14.2
2023-06-17T02:23:33.687Z,14.1
2023-06-17T02:24:39.960Z,14.1
2023-06-17T02:25:46.222Z,14.1
2023-06-17T02:26:52.500Z,14.1
2023-06-17T02:27:57.787Z,14
2023-06-17T02:29:04.057Z,14
2023-06-17T02:30:10.330Z,14
2023-06-17T02:31:16.608Z,14
2023-06-17T02:32:22.872Z,14
2023-06-17T02:33:29.152Z,14
2023-06-17T02:34:35.413Z,13.9
2023-06-17T02:35:41.725Z,13.9
2023-06-17T02:36:47.968Z,14
2023-06-17T02:37:54.238Z,14
2023-06-17T02:39:00.509Z,14
2023-06-17T02:40:06.768Z,14
2023-06-17T02:41:13.051Z,14.1
2023-06-17T02:42:18.343Z,14.1
2023-06-17T02:43:24.614Z,14.1
2023-06-17T02:44:30.884Z,14.1
2023-06-17T02:45:37.165Z,14.1
2023-06-17T02:46:43.445Z,14.1
2023-06-17T02:47:49.702Z,14.1
2023-06-17T02:48:55.973Z,14.1
2023-06-17T02:50:02.238Z,14.1
2023-06-17T02:51:08.520Z,14.1
2023-06-17T02:52:14.783Z,14.1
2023-06-17T02:53:21.059Z,14.1
2023-06-17T02:54:27.333Z,14.1
2023-06-17T02:55:33.592Z,14.1
2023-06-17T02:56:38.891Z,14.1
2023-06-17T02:57:45.170Z,14
2023-06-17T02:58:51.442Z,13.9
2023-06-17T02:59:57.710Z,13.9
2023-06-17T03:01:03.981Z,13.9
2023-06-17T03:02:10.266Z,13.9
2023-06-17T03:03:15.562Z,13.9
2023-06-17T03:04:21.826Z,13.9
2023-06-17T03:05:28.094Z,13.9
2023-06-17T03:06:34.369Z,13.9
2023-06-17T03:07:40.636Z,13.9
2023-06-17T03:08:46.910Z,13.9
2023-06-17T03:09:53.182Z,13.8
2023-06-17T03:10:59.464Z,13.8
2023-06-17T03:12:05.738Z,13.7
2023-06-17T03:13:11.998Z,13.7
2023-06-17T03:14:18.285Z,13.7
2023-06-17T03:15:24.556Z,13.6
2023-06-17T03:16:30.815Z,13.6
2023-06-17T03:17:37.092Z,13.6
2023-06-17T03:18:42.384Z,13.5
2023-06-17T03:19:48.648Z,13.4
2023-06-17T03:20:54.936Z,13.4
2023-06-17T03:22:01.196Z,13.4
2023-06-17T03:23:07.469Z,13.3
2023-06-17T03:24:13.741Z,13.3
2023-06-17T03:25:20.017Z,13.2
2023-06-17T03:26:26.277Z,13.2
2023-06-17T03:27:32.545Z,13.2
2023-06-17T03:28:38.815Z,13.2
2023-06-17T03:29:45.111Z,13.2
2023-06-17T03:30:51.378Z,13.2
2023-06-17T03:31:57.658Z,13.2
2023-06-17T03:33:02.930Z,13.2
2023-06-17T03:34:09.203Z,13.1
2023-06-17T03:35:15.475Z,13
2023-06-17T03:36:21.776Z,13
2023-06-17T03:37:28.033Z,12.9
2023-06-17T03:38:34.288Z,12.9
2023-06-17T03:39:40.558Z,12.9
2023-06-17T03:40:46.839Z,12.9
2023-06-17T03:41:53.107Z,13
2023-06-17T03:42:59.381Z,13
2023-06-17T03:44:05.653Z,13
2023-06-17T03:45:11.945Z,13
2023-06-17T03:46:18.183Z,13
2023-06-17T03:47:23.488Z,13
2023-06-17T03:48:29.760Z,13.1
2023-06-17T03:49:36.023Z,13.1
2023-06-17T03:50:42.309Z,13
2023-06-17T03:51:48.578Z,13
2023-06-17T03:52:54.862Z,13
2023-06-17T03:54:01.121Z,12.9
2023-06-17T03:55:07.423Z,12.8
2023-06-17T03:56:13.672Z,12.8
2023-06-17T03:57:19.930Z,12.8
2023-06-17T03:58:26.236Z,12.8
2023-06-17T03:59:32.477Z,12.8
2023-06-17T04:00:38.751Z,12.9
2023-06-17T04:01:44.043Z,12.9
2023-06-17T04:02:50.307Z,12.9
2023-06-17T04:03:56.579Z,13
2023-06-17T04:05:02.846Z,13
2023-06-17T04:06:09.132Z,13.1
2023-06-17T04:07:15.397Z,13.1
2023-06-17T04:08:21.676Z,13.1
2023-06-17T04:09:27.930Z,13.1
2023-06-17T04:10:34.209Z,13.1
2023-06-17T04:11:40.481Z,13.1
2023-06-17T04:12:46.785Z,13.1
2023-06-17T04:13:53.026Z,13.1
2023-06-17T04:14:59.306Z,13.1
2023-06-17T04:16:04.585Z,13.1
2023-06-17T04:17:10.865Z,13.2
2023-06-17T04:18:17.138Z,13.2
2023-06-17T04:19:23.427Z,13.1
2023-06-17T04:20:29.677Z,13.1
2023-06-17T04:21:35.952Z,13
2023-06-17T04:22:42.235Z,13.1
2023-06-17T04:23:48.491Z,13.1
2023-06-17T04:24:54.763Z,13.1
2023-06-17T04:26:01.040Z,13.1
2023-06-17T04:27:07.321Z,13.1
2023-06-17T04:28:13.586Z,13.1
2023-06-17T04:29:19.852Z,13
2023-06-17T04:30:25.145Z,13
2023-06-17T04:31:31.425Z,13.1
2023-06-17T04:32:37.701Z,13.1
2023-06-17T04:33:43.976Z,13.1
2023-06-17T04:34:50.246Z,13.1
2023-06-17T04:35:56.508Z,13.2
2023-06-17T04:37:02.777Z,13.2
2023-06-17T04:38:09.051Z,13.2
2023-06-17T04:39:15.323Z,13.2
2023-06-17T04:40:21.588Z,13.2
2023-06-17T04:41:27.876Z,13.2
2023-06-17T04:42:34.136Z,13.2
2023-06-17T04:43:40.403Z,13.2
2023-06-17T04:44:45.699Z,13.2
2023-06-17T04:45:51.967Z,13.2
2023-06-17T04:46:58.238Z,13.2
2023-06-17T04:48:04.518Z,13.2
2023-06-17T04:49:10.786Z,13.3
2023-06-17T04:50:17.062Z,13.3
2023-06-17T04:51:23.333Z,13.3
2023-06-17T04:52:29.601Z,13.3
2023-06-17T04:53:35.892Z,13.4
2023-06-17T04:54:42.146Z,13.4
2023-06-17T04:55:48.418Z,13.4
2023-06-17T04:56:54.692Z,13.5
2023-06-17T04:58:00.959Z,13.5
2023-06-17T04:59:06.250Z,13.5
2023-06-17T05:00:12.539Z,13.5
2023-06-17T05:01:18.803Z,13.6
2023-06-17T05:02:25.062Z,13.6
2023-06-17T05:03:31.340Z,13.7
2023-06-17T05:04:37.607Z,13.7
2023-06-17T05:05:43.883Z,13.8
2023-06-17T05:06:50.153Z,13.8
2023-06-17T05:07:56.437Z,13.8
2023-06-17T05:09:02.691Z,13.8
2023-06-17T05:10:08.970Z,13.8
2023-06-17T05:11:15.312Z,13.7
2023-06-17T05:12:21.522Z,13.7
2023-06-17T05:13:26.800Z,13.7
2023-06-17T05:14:33.070Z,13.7
2023-06-17T05:15:39.343Z,13.7
2023-06-17T05:16:45.609Z,13.7
2023-06-17T05:17:51.893Z,13.8
2023-06-17T05:18:58.163Z,13.8
2023-06-17T05:20:04.424Z,13.8
2023-06-17T05:21:10.700Z,13.8
2023-06-17T05:22:16.981Z,13.9
2023-06-17T05:23:23.248Z,13.9
2023-06-17T05:24:29.539Z,13.9
2023-06-17T05:25:35.804Z,13.9
2023-06-17T05:26:42.068Z,14
2023-06-17T05:27:47.359Z,14
2023-06-17T05:28:53.621Z,14.1
2023-06-17T05:29:59.889Z,14.1
2023-06-17T05:31:06.170Z,14.2
2023-06-17T05:32:12.435Z,14.2
2023-06-17T05:33:18.712Z,14.2
2023-06-17T05:34:24.983Z,14.3
2023-06-17T05:35:31.263Z,14.3
2023-06-17T05:36:37.531Z,14.3
2023-06-17T05:37:43.804Z,14.4
2023-06-17T05:38:50.074Z,14.4
2023-06-17T05:39:56.341Z,14.4
2023-06-17T05:41:02.616Z,14.4
2023-06-17T05:42:07.911Z,14.5
2023-06-17T05:43:14.226Z,14.5
2023-06-17T05:44:20.451Z,14.6
2023-06-17T05:45:26.727Z,14.6
2023-06-17T05:46:33.023Z,14.7
2023-06-17T05:47:39.271Z,14.7
2023-06-17T05:48:45.540Z,14.8
2023-06-17T05:49:51.814Z,14.8
2023-06-17T05:50:58.110Z,14.9
2023-06-17T05:52:04.353Z,14.9
2023-06-17T05:53:10.623Z,14.9
2023-06-17T05:54:16.900Z,15
2023-06-17T05:55:23.177Z,15
2023-06-17T05:56:28.478Z,15
2023-06-17T05:57:34.729Z,15.1
2023-06-17T05:58:40.997Z,15.1
2023-06-17T05:59:47.282Z,15.2
2023-06-17T06:00:53.548Z,15.2
2023-06-17T06:01:59.813Z,15.2
2023-06-17T06:03:06.088Z,15.2
2023-06-17T06:04:12.362Z,15.2
2023-06-17T06:05:18.624Z,15.1
2023-06-17T06:06:24.925Z,15.1
2023-06-17T06:07:31.180Z,15.1
2023-06-17T06:08:37.452Z,15.1
2023-06-17T06:09:43.719Z,15.1
2023-06-17T06:10:49.007Z,15.1
2023-06-17T06:11:55.280Z,15.2
2023-06-17T06:13:01.554Z,15.2
2023-06-17T06:14:07.835Z,15.3
2023-06-17T06:15:14.094Z,15.3
2023-06-17T06:16:20.376Z,15.4
2023-06-17T06:17:26.642Z,15.4
2023-06-17T06:18:32.919Z,15.5
2023-06-17T06:19:39.186Z,15.5
2023-06-17T06:20:45.468Z,15.6
2023-06-17T06:21:51.738Z,15.6
2023-06-17T06:22:58.009Z,15.7
2023-06-17T06:24:04.283Z,15.8
2023-06-17T06:25:09.567Z,15.8
2023-06-17T06:26:15.853Z,15.8
2023-06-17T06:27:22.128Z,15.9
2023-06-17T06:28:28.384Z,16
2023-06-17T06:29:34.655Z,16
2023-06-17T06:30:40.919Z,16
2023-06-17T06:31:47.243Z,16.1
2023-06-17T06:32:53.469Z,16.1
2023-06-17T06:33:59.753Z,16.2
2023-06-17T06:35:06.013Z,16.2
2023-06-17T06:36:12.318Z,16.3
2023-06-17T06:37:18.560Z,16.3
2023-06-17T06:38:24.844Z,16.4
2023-06-17T06:39:30.163Z,16.4
2023-06-17T06:40:36.388Z,16.5
2023-06-17T06:41:42.662Z,16.5
2023-06-17T06:42:48.935Z,16.6
2023-06-17T06:43:55.205Z,16.7
2023-06-17T06:45:00.495Z,16.7
2023-06-17T06:46:06.803Z,16.8
2023-06-17T06:47:13.045Z,16.9
2023-06-17T06:48:19.337Z,16.9
2023-06-17T06:49:25.605Z,17
2023-06-17T06:50:31.859Z,17.1
2023-06-17T06:51:38.141Z,17.2
2023-06-17T06:52:44.398Z,17.3
2023-06-17T06:53:50.672Z,17.3
2023-06-17T06:54:56.944Z,17.4
2023-06-17T06:56:03.228Z,17.4
2023-06-17T06:57:09.490Z,17.5
2023-06-17T06:58:15.762Z,17.5
2023-06-17T06:59:21.090Z,17.5
2023-06-17T07:00:27.372Z,17.5
2023-06-17T07:01:33.593Z,17.6
2023-06-17T07:02:39.871Z,17.6
2023-06-17T07:03:46.126Z,17.7
2023-06-17T07:04:52.404Z,17.7
2023-06-17T07:05:58.680Z,17.7
2023-06-17T07:07:04.954Z,17.8
2023-06-17T07:08:11.235Z,17.9
2023-06-17T07:09:17.489Z,18
2023-06-17T07:10:23.764Z,18
2023-06-17T07:11:30.055Z,18.1
2023-06-17T07:12:36.314Z,18.2
2023-06-17T07:13:42.591Z,18.3
2023-06-17T07:14:47.872Z,18.4
2023-06-17T07:15:54.145Z,18.4
2023-06-17T07:17:00.446Z,18.5
2023-06-17T07:18:06.725Z,18.5
2023-06-17T07:19:12.956Z,18.5
2023-06-17T07:20:19.230Z,18.6
2023-06-17T07:21:25.509Z,18.6
2023-06-17T07:22:31.783Z,18.7
2023-06-17T07:23:38.059Z,18.8
2023-06-17T07:24:44.331Z,18.8
2023-06-17T07:25:50.589Z,18.8
2023-06-17T07:26:56.854Z,18.8
2023-06-17T07:28:03.132Z,18.8
2023-06-17T07:29:08.412Z,18.9
2023-06-17T07:30:14.705Z,18.9
2023-06-17T07:31:20.961Z,18.9
2023-06-17T07:32:27.238Z,18.9
2023-06-17T07:33:33.518Z,19
2023-06-17T07:34:39.779Z,18.9
2023-06-17T07:35:46.051Z,18.9
2023-06-17T07:36:52.329Z,18.9
2023-06-17T07:37:58.598Z,19
2023-06-17T07:39:04.875Z,19
2023-06-17T07:40:11.150Z,19.1
2023-06-17T07:41:17.406Z,19.2
2023-06-17T07:42:23.708Z,19.3
2023-06-17T07:43:28.989Z,19.3
2023-06-17T07:44:35.238Z,19.4
2023-06-17T07:45:41.519Z,19.4
2023-06-17T07:46:47.847Z,19.5
2023-06-17T07:47:54.063Z,19.5
2023-06-17T07:49:00.346Z,19.5
2023-06-17T07:50:06.614Z,19.5
2023-06-17T07:51:12.881Z,19.5
2023-06-17T07:52:19.154Z,19.5
2023-06-17T07:53:25.416Z,19.6
2023-06-17T07:54:31.725Z,19.6
2023-06-17T07:55:37.974Z,19.6
2023-06-17T07:56:44.265Z,19.8
2023-06-17T07:57:49.523Z,19.8
2023-06-17T07:58:55.789Z,19.9
2023-06-17T08:00:02.084Z,19.9
2023-06-17T08:01:08.349Z,20
2023-06-17T08:02:14.617Z,20
2023-06-17T08:03:20.877Z,20.1
2023-06-17T08:04:27.173Z,20.2
2023-06-17T08:05:33.437Z,20.2
2023-06-17T08:06:39.714Z,20.4
2023-06-17T08:07:46.007Z,20.5
2023-06-17T08:08:52.253Z,20.5
2023-06-17T08:09:58.558Z,20.5
2023-06-17T08:11:04.789Z,20.6
2023-06-17T08:12:10.080Z,20.7
2023-06-17T08:13:16.352Z,20.6
2023-06-17T08:14:22.648Z,20.7
2023-06-17T08:15:28.902Z,20.7
2023-06-17T08:16:35.373Z,20.7
2023-06-17T08:17:41.641Z,20.7
2023-06-17T08:18:47.912Z,20.8
2023-06-17T08:19:53.982Z,20.9
2023-06-17T08:21:00.481Z,21
2023-06-17T08:22:06.673Z,21.2
2023-06-17T08:23:12.951Z,21.2
2023-06-17T08:24:19.114Z,21.3
2023-06-17T08:25:25.352Z,21.4
2023-06-17T08:26:30.706Z,21.4
2023-06-17T08:27:36.924Z,21.5
2023-06-17T08:28:43.250Z,21.4
2023-06-17T08:29:49.511Z,21.4
2023-06-17T08:30:55.746Z,21.4
2023-06-17T08:32:02.078Z,21.6
2023-06-17T08:33:08.279Z,21.7
2023-06-17T08:34:14.543Z,21.9
2023-06-17T08:35:20.807Z,22
2023-06-17T08:36:27.088Z,22.2
2023-06-17T08:37:33.411Z,22.3
2023-06-17T08:38:39.641Z,22.4
2023-06-17T08:39:45.953Z,22.6
2023-06-17T08:40:52.171Z,22.6
2023-06-17T08:41:57.455Z,22.7
2023-06-17T08:43:03.792Z,22.7
2023-06-17T08:44:10.051Z,22.7
2023-06-17T08:45:16.274Z,22.7
2023-06-17T08:46:22.559Z,22.7
2023-06-17T08:47:28.820Z,22.6
2023-06-17T08:48:35.103Z,22.6
2023-06-17T08:49:41.361Z,22.5
2023-06-17T08:50:47.631Z,22.5
2023-06-17T08:51:53.912Z,22.5
2023-06-17T08:53:00.187Z,22.5
2023-06-17T08:54:06.541Z,22.6
2023-06-17T08:55:12.721Z,22.7
2023-06-17T08:56:18.011Z,22.7
2023-06-17T08:57:24.283Z,22.8
2023-06-17T08:58:30.548Z,22.8
2023-06-17T08:59:36.819Z,22.8
2023-06-17T09:00:43.158Z,22.8
2023-06-17T09:01:49.376Z,22.9
2023-06-17T09:02:55.642Z,22.7
2023-06-17T09:04:01.921Z,22.7
2023-06-17T09:05:08.193Z,22.7
2023-06-17T09:06:14.450Z,22.7
2023-06-17T09:07:20.736Z,22.8
2023-06-17T09:08:27.014Z,22.7
2023-06-17T09:09:33.284Z,22.7
2023-06-17T09:10:38.565Z,22.7
2023-06-17T09:11:44.844Z,22.7
2023-06-17T09:12:51.113Z,22.7
2023-06-17T09:13:57.397Z,22.7
2023-06-17T09:15:03.659Z,22.7
2023-06-17T09:16:09.920Z,22.7
2023-06-17T09:17:16.206Z,22.8
2023-06-17T09:18:22.470Z,22.7
2023-06-17T09:19:28.758Z,22.7
2023-06-17T09:20:35.021Z,22.7
2023-06-17T09:21:41.301Z,22.8
2023-06-17T09:22:47.572Z,22.8
2023-06-17T09:23:53.844Z,22.8
2023-06-17T09:24:59.118Z,22.8
2023-06-17T09:26:05.385Z,22.9
2023-06-17T09:27:11.651Z,22.9
2023-06-17T09:28:17.919Z,23
2023-06-17T09:29:24.204Z,23.2
2023-06-17T09:30:30.483Z,23.5
2023-06-17T09:31:36.754Z,23.7
2023-06-17T09:32:43.032Z,24
2023-06-17T09:33:49.293Z,24.2
2023-06-17T09:34:55.544Z,24.5
2023-06-17T09:36:01.832Z,24.7
2023-06-17T09:37:08.115Z,24.9
2023-06-17T09:38:14.386Z,25.1
2023-06-17T09:39:19.662Z,25.3
2023-06-17T09:40:25.931Z,25.6
2023-06-17T09:41:32.204Z,25.8
2023-06-17T09:42:38.479Z,25.9
2023-06-17T09:43:44.752Z,26
2023-06-17T09:44:51.021Z,26.1
2023-06-17T09:45:57.293Z,26.2
2023-06-17T09:47:03.567Z,26.3
2023-06-17T09:48:09.842Z,26.4
2023-06-17T09:49:16.121Z,26.6
2023-06-17T09:50:22.385Z,26.8
2023-06-17T09:51:28.660Z,27
2023-06-17T09:52:34.935Z,27.1
2023-06-17T09:53:40.260Z,27.3
2023-06-17T09:54:46.498Z,27.3
2023-06-17T09:55:52.772Z,26.9
2023-06-17T09:56:59.130Z,26.4
2023-06-17T09:58:05.310Z,26.1
2023-06-17T09:59:11.575Z,25.9
2023-06-17T10:00:17.861Z,25.8
2023-06-17T10:01:24.128Z,26
2023-06-17T10:02:30.391Z,26.2
2023-06-17T10:03:36.715Z,26.1
2023-06-17T10:04:42.948Z,26.1
2023-06-17T10:05:49.214Z,26.2
2023-06-17T10:06:55.519Z,26.1
2023-06-17T10:08:00.789Z,26.1
2023-06-17T10:09:07.050Z,26.3
2023-06-17T10:10:13.348Z,26.5
2023-06-17T10:11:19.598Z,26.5
2023-06-17T10:12:25.865Z,26.5
2023-06-17T10:13:32.161Z,26.4
2023-06-17T10:14:38.409Z,26.3
2023-06-17T10:15:44.684Z,26.6
2023-06-17T10:16:50.970Z,26.9
2023-06-17T10:17:57.241Z,27.2
2023-06-17T10:19:03.539Z,27.2
2023-06-17T10:20:09.930Z,27.1
2023-06-17T10:21:16.157Z,27.1
2023-06-17T10:22:22.332Z,27
2023-06-17T10:23:27.742Z,26.8
2023-06-17T10:24:33.887Z,27.1
2023-06-17T10:25:40.246Z,27.4
2023-06-17T10:26:45.486Z,27.3
2023-06-17T10:27:51.893Z,27.1
2023-06-17T10:28:58.152Z,26.8
2023-06-17T10:30:04.363Z,26.6
2023-06-17T10:31:10.686Z,26.4
2023-06-17T10:32:16.928Z,26.3
2023-06-17T10:33:23.243Z,26.3
2023-06-17T10:34:29.382Z,26.4
2023-06-17T10:35:35.821Z,26.4
2023-06-17T10:36:42.073Z,26.5
2023-06-17T10:37:48.201Z,26.4
2023-06-17T10:38:54.639Z,26.6
2023-06-17T10:40:00.705Z,26.9
2023-06-17T10:41:06.044Z,27.2
2023-06-17T10:42:12.442Z,27.4
2023-06-17T10:43:18.775Z,27.7
2023-06-17T10:44:25.013Z,27.9
2023-06-17T10:45:31.172Z,28
2023-06-17T10:46:37.529Z,28.1
2023-06-17T10:47:43.799Z,28.1
2023-06-17T10:48:50.142Z,28
2023-06-17T10:49:56.368Z,28
2023-06-17T10:51:02.560Z,28.2
2023-06-17T10:52:08.917Z,28.4
2023-06-17T10:53:15.194Z,28.6
2023-06-17T10:54:21.480Z,28.7
2023-06-17T10:55:26.729Z,28.8
2023-06-17T10:56:32.995Z,28.8
2023-06-17T10:57:39.121Z,28.8
2023-06-17T10:58:45.552Z,28.7
2023-06-17T10:59:51.832Z,28.6
2023-06-17T11:00:58.098Z,28.6
2023-06-17T11:02:04.191Z,28.5
2023-06-17T11:03:10.620Z,28.2
2023-06-17T11:04:16.833Z,28.2
2023-06-17T11:05:23.082Z,28.2
2023-06-17T11:06:29.444Z,28.1
2023-06-17T11:07:35.627Z,27.9
2023-06-17T11:08:41.924Z,27.7
2023-06-17T11:09:47.382Z,27.6
2023-06-17T11:10:53.378Z,27.3
2023-06-17T11:11:59.943Z,27.2
2023-06-17T11:13:06.147Z,27.2
2023-06-17T11:14:12.337Z,27.4
2023-06-17T11:15:18.652Z,27.6
2023-06-17T11:16:24.939Z,27.8
2023-06-17T11:17:31.070Z,28
2023-06-17T11:18:37.406Z,28
2023-06-17T11:19:43.663Z,28.1
2023-06-17T11:20:49.923Z,28.3
2023-06-17T11:21:56.313Z,28.3
2023-06-17T11:23:02.565Z,28.3
2023-06-17T11:24:07.921Z,28.2
2023-06-17T11:25:14.018Z,27.9
2023-06-17T11:26:20.394Z,27.8
2023-06-17T11:27:26.512Z,27.8
2023-06-17T11:28:33.022Z,27.6
2023-06-17T11:29:39.180Z,27.5
2023-06-17T11:30:45.342Z,27.4
2023-06-17T11:31:51.689Z,27.5
2023-06-17T11:32:57.973Z,27.6
2023-06-17T11:34:04.296Z,27.6
2023-06-17T11:35:10.481Z,27.8
2023-06-17T11:36:16.827Z,27.9
2023-06-17T11:37:23.204Z,27.9
2023-06-17T11:38:29.396Z,28.1
2023-06-17T11:39:34.661Z,28.3
2023-06-17T11:40:40.832Z,28.4
2023-06-17T11:41:47.223Z,28.5
2023-06-17T11:42:53.541Z,28.6
2023-06-17T11:43:59.814Z,28.8
2023-06-17T11:45:05.985Z,28.9
2023-06-17T11:46:12.362Z,29.1
2023-06-17T11:47:18.555Z,29
2023-06-17T11:48:24.839Z,29
2023-06-17T11:49:31.054Z,29.1
2023-06-17T11:50:37.284Z,29.3
2023-06-17T11:51:43.717Z,29.5
2023-06-17T11:52:49.887Z,29.6
2023-06-17T11:53:55.201Z,29.7
2023-06-17T11:55:01.519Z,29.7
2023-06-17T11:56:07.585Z,29.4
2023-06-17T11:57:14.008Z,29.5
2023-06-17T11:58:20.357Z,29.4
2023-06-17T11:59:26.552Z,29.4
2023-06-17T12:00:32.829Z,29.1
2023-06-17T12:01:39.116Z,29.2
2023-06-17T12:02:45.431Z,29.4
2023-06-17T12:03:51.678Z,29.7
2023-06-17T12:04:57.910Z,29.8
2023-06-17T12:06:04.239Z,29.8
2023-06-17T12:07:10.491Z,29.8
2023-06-17T12:08:16.758Z,29.6
2023-06-17T12:09:21.982Z,29.5
2023-06-17T12:10:28.406Z,29.5
2023-06-17T12:11:34.623Z,29.7
2023-06-17T12:12:40.814Z,29.9
2023-06-17T12:13:47.012Z,29.8
2023-06-17T12:14:53.477Z,29.7
2023-06-17T12:15:59.633Z,29.6
2023-06-17T12:17:05.802Z,29.7
2023-06-17T12:18:12.156Z,29.8
2023-06-17T12:19:18.505Z,29.7
2023-06-17T12:20:24.786Z,29.7
2023-06-17T12:21:31.036Z,29.5
2023-06-17T12:22:37.323Z,29.3
2023-06-17T12:23:42.613Z,29.1
2023-06-17T12:24:48.941Z,29.2
2023-06-17T12:25:55.157Z,29.2
2023-06-17T12:27:01.263Z,29.3
2023-06-17T12:28:07.838Z,29.2
2023-06-17T12:29:13.917Z,28.9
2023-06-17T12:30:20.297Z,28.9
2023-06-17T12:31:26.520Z,28.9
2023-06-17T12:32:32.680Z,28.8
2023-06-17T12:33:39.092Z,28.7
2023-06-17T12:34:45.244Z,28.7
2023-06-17T12:35:51.676Z,28.8
2023-06-17T12:36:57.858Z,29.1
2023-06-17T12:38:03.140Z,29.2
2023-06-17T12:39:09.504Z,29.3
2023-06-17T12:40:15.730Z,29.3
2023-06-17T12:41:21.897Z,29.4
2023-06-17T12:42:28.361Z,29.3
2023-06-17T12:43:34.521Z,29
2023-06-17T12:44:40.741Z,29
2023-06-17T12:45:47.110Z,29.2
2023-06-17T12:46:53.293Z,29.4
2023-06-17T12:47:59.560Z,29.7
2023-06-17T12:49:05.779Z,29.9
2023-06-17T12:50:12.180Z,30
2023-06-17T12:51:18.547Z,29.8
2023-06-17T12:52:23.713Z,29.6
2023-06-17T12:53:29.826Z,29.6
2023-06-17T12:54:36.294Z,29.6
2023-06-17T12:55:42.527Z,29.5
2023-06-17T12:56:48.699Z,29.4
2023-06-17T12:57:55.015Z,29.3
2023-06-17T12:59:01.278Z,29.1
2023-06-17T13:00:07.462Z,28.9
2023-06-17T13:01:13.892Z,29
2023-06-17T13:02:20.274Z,29.3
2023-06-17T13:03:26.454Z,29.3
2023-06-17T13:04:32.705Z,29.2
2023-06-17T13:05:38.989Z,29.2
2023-06-17T13:06:44.121Z,29.1
2023-06-17T13:07:50.375Z,28.8
2023-06-17T13:08:56.696Z,28.8
2023-06-17T13:10:02.989Z,28.7
2023-06-17T13:11:09.319Z,28.8
2023-06-17T13:12:15.569Z,29
2023-06-17T13:13:21.953Z,29.1
2023-06-17T13:14:28.096Z,29.3
2023-06-17T13:15:34.509Z,29.6
2023-06-17T13:16:40.741Z,29.9
2023-06-17T13:17:46.983Z,30.2
2023-06-17T13:18:53.186Z,30.4
2023-06-17T13:19:59.521Z,30.6
2023-06-17T13:21:04.868Z,30.7
2023-06-17T13:22:10.968Z,30.8
2023-06-17T13:23:17.281Z,31
2023-06-17T13:24:23.576Z,31.2
2023-06-17T13:25:29.826Z,31
2023-06-17T13:26:36.157Z,30.9
2023-06-17T13:27:42.366Z,31.1
2023-06-17T13:28:48.827Z,31.2
2023-06-17T13:29:54.963Z,31.1
2023-06-17T13:31:01.131Z,31
2023-06-17T13:32:07.470Z,31.1
2023-06-17T13:33:13.736Z,31.1
2023-06-17T13:34:20.094Z,31.2
2023-06-17T13:35:26.264Z,31.2
2023-06-17T13:36:31.687Z,31.3
2023-06-17T13:37:37.935Z,31.4
2023-06-17T13:38:44.095Z,31.6
2023-06-17T13:39:50.330Z,31.8
2023-06-17T13:40:56.740Z,31.9
2023-06-17T13:42:03.002Z,32.1
2023-06-17T13:43:09.168Z,32.1
2023-06-17T13:44:15.522Z,32.3
2023-06-17T13:45:21.684Z,32.4
2023-06-17T13:46:27.993Z,32.5
2023-06-17T13:47:34.329Z,32.5
2023-06-17T13:48:40.609Z,32.6
2023-06-17T13:49:46.922Z,32.6
2023-06-17T13:50:53.052Z,32.6
2023-06-17T13:51:58.395Z,32.4
2023-06-17T13:53:04.611Z,32.1
2023-06-17T13:54:11.008Z,32.1
2023-06-17T13:55:17.333Z,32.1
2023-06-17T13:56:23.654Z,32.3
2023-06-17T13:57:29.805Z,32.3
2023-06-17T13:58:36.074Z,32.4
2023-06-17T13:59:42.375Z,32.5
2023-06-17T14:00:48.650Z,32.6
2023-06-17T14:01:54.938Z,32.4
2023-06-17T14:03:01.169Z,32.4
2023-06-17T14:04:07.428Z,32.6
2023-06-17T14:05:13.615Z,32.7
2023-06-17T14:06:19.080Z,32.8
2023-06-17T14:07:25.411Z,32.8
2023-06-17T14:08:30.626Z,33
2023-06-17T14:09:37.027Z,33
2023-06-17T14:10:43.203Z,33.1
2023-06-17T14:11:49.420Z,33.2
2023-06-17T14:12:55.710Z,33.4
2023-06-17T14:14:02.022Z,33.4
2023-06-17T14:15:08.337Z,33
2023-06-17T14:16:14.574Z,32.5
2023-06-17T14:17:20.862Z,32.2
2023-06-17T14:18:27.085Z,32.2
2023-06-17T14:19:33.401Z,32.4
2023-06-17T14:20:39.714Z,32.4
2023-06-17T14:21:45.953Z,32.5
2023-06-17T14:22:51.201Z,32.6
2023-06-17T14:23:57.318Z,32.6
2023-06-17T14:25:03.621Z,32.7
2023-06-17T14:26:10.048Z,32.8
2023-06-17T14:27:16.287Z,32.9
2023-06-17T14:28:22.639Z,33.1
2023-06-17T14:29:28.680Z,33.1
2023-06-17T14:30:34.949Z,33.3
2023-06-17T14:31:41.218Z,33.3
2023-06-17T14:32:47.501Z,33.4
2023-06-17T14:33:53.768Z,33.4
2023-06-17T14:35:00.038Z,33.4
2023-06-17T14:36:06.319Z,33.4
2023-06-17T14:37:11.604Z,33.4
2023-06-17T14:38:17.869Z,33.5
2023-06-17T14:39:24.150Z,33.4
2023-06-17T14:40:30.412Z,33.3
2023-06-17T14:41:36.685Z,33.3
2023-06-17T14:42:42.977Z,33.1
2023-06-17T14:43:49.231Z,33
2023-06-17T14:44:55.501Z,32.9
2023-06-17T14:46:01.780Z,32.8